Estación Meteorológica Peña el Pijo (Robertgarden) [ 08/22/19 15:09:42 CEST ]

Fecha Hora Presion(HPa) Temp (°C) Humedad % Rocio (°C) Viento ( m/s) Direccion Lluvia 1Hora(mm) Lluvia 24H(mm) LLuvia Total(mm)
2019-Feb-08 01:01:51 1012.900 1.1 74 -3.1         183.37
2019-Feb-08 02:02:12 1013.000 0.7 77 -2.9         183.37
2019-Feb-08 03:02:26 1012.700 0.4 78 -3.0         183.37
2019-Feb-08 04:02:22 1012.100 0.4 79 -2.8         183.37
2019-Feb-08 05:04:09 1011.400 0.1 80 -2.9         183.37
2019-Feb-08 06:01:51 1011.500 -0.9 81 -3.7         183.37
2019-Feb-08 07:01:50 1011.600 -1.6 82 -4.3         183.37
2019-Feb-08 08:01:54 1012.100 -1.5 83 -4.0         183.37
2019-Feb-08 09:01:48 1012.400 -1.4 83 -3.9         183.37
2019-Feb-08 10:01:37 1012.400 5.3 85 2.9         183.37
2019-Feb-08 11:02:02 1012.100 13.0 61 5.6         183.37
2019-Feb-08 12:01:41 1011.600 17.3 37 2.4         183.37
2019-Feb-08 13:01:53 1011.200 17.5 29 -0.8 3.2 WNW     183.37
2019-Feb-08 14:01:33 1010.600 19.2 27 -0.4 2.8 N     183.37
2019-Feb-08 15:01:26 1010.000 19.9 24 -1.5         183.37
2019-Feb-08 16:01:43 1009.800 19.6 22 -2.9         183.37
2019-Feb-08 17:01:48 1009.900 18.1 24 -3.0         183.37
2019-Feb-08 18:01:29 1010.000 14.9 29 -3.0 0.8 NW     183.37
2019-Feb-08 19:01:38 1010.400 10.7 36 -3.9         183.37
2019-Feb-08 20:01:47 1010.900 6.2 48 -4.0         183.37
2019-Feb-08 21:01:39 1011.100 4.1 55 -4.2         183.37
2019-Feb-08 22:01:44 1011.500 2.2 60 -4.7         183.37
2019-Feb-08 23:01:47 1012.100 0.9 66 -4.8         183.37

Temperatura Máxima:19°    Temperatura Mínima:-1°
Presión Máxima:1013.000 Hpa    Presión Mínima:1009.800 Hpa


Volver